Time;durP1;ratioP1;P1;durP2;ratioP2;P2;SDS_P1;SDS_P2;PMS_P1;PMS_P2;Temp;Humidity;BMP_temperature;BMP_pressure;BME280_temperature;BME280_humidity;BME280_pressure;Samples;Min_cycle;Max_cycle;Signal;HPM_P1;HPM_P2
2023/10/17 00:01:48;;;;;;;;;5.33;2.00;;;;;10.07;52.00;101058.97;5036200;28;45724;-40
2023/10/17 00:06:44;;;;;;;;;2.00;2.00;;;;;10.09;51.88;101061.47;5036220;28;45393;-42
2023/10/17 00:09:09;;;;;;;;;2.00;2.00;;;;;10.08;51.78;101057.97;5036209;28;45549;-40
2023/10/17 00:14:32;;;;;;;;;2.33;2.33;;;;;10.06;52.30;101048.44;4954931;28;45848;-39
2023/10/17 00:16:57;;;;;;;;;2.00;2.00;;;;;10.07;52.26;101048.34;4938987;28;45907;-41
2023/10/17 00:19:25;;;;;;;;;5.00;4.75;;;;;10.08;52.36;101049.16;4955019;28;45413;-40
2023/10/17 00:21:52;;;;;;;;;3.67;2.00;;;;;10.06;52.76;101051.94;4955490;28;45521;-41
2023/10/17 00:24:19;;;;;;;;;3.00;3.00;;;;;10.06;52.58;101051.94;4954852;28;46248;-39
2023/10/17 00:26:47;;;;;;;;;6.00;3.00;;;;;10.05;52.87;101060.06;4955081;28;45587;-41
2023/10/17 00:29:13;;;;;;;;;3.00;3.00;;;;;10.01;52.85;101046.19;4954495;28;45645;-40
2023/10/17 00:31:39;;;;;;;;;5.33;3.00;;;;;9.99;52.90;101043.69;4955058;28;45397;-40
2023/10/17 00:34:14;;;;;;;;;2.00;2.00;;;;;10.00;52.82;101040.03;4954482;28;46258;-41
2023/10/17 00:36:50;;;;;;;;;4.50;3.75;;;;;9.98;52.92;101035.84;4954454;28;45477;-40
2023/10/17 00:39:29;;;;;;;;;2.00;2.00;;;;;9.97;53.49;101037.66;4954858;28;45387;-40
2023/10/17 00:44:39;;;;;;;;;2.33;2.33;;;;;9.91;53.51;101026.75;4954243;28;46161;-38
2023/10/17 00:47:09;;;;;;;;;2.00;2.00;;;;;9.84;53.27;101018.44;4954590;28;45392;-40
2023/10/17 00:49:42;;;;;;;;;5.00;2.67;;;;;9.88;53.46;101024.34;4954743;28;45426;-40
2023/10/17 00:52:32;;;;;;;;;5.00;3.00;;;;;9.81;53.09;101007.25;5017518;28;45433;-41
2023/10/17 00:54:59;;;;;;;;;7.33;4.33;;;;;9.78;53.29;101007.53;5035347;28;46095;-40
2023/10/17 00:57:26;;;;;;;;;3.67;2.00;;;;;9.78;54.01;101020.81;5035484;28;45230;-40
2023/10/17 00:59:53;;;;;;;;;3.00;3.00;;;;;9.77;53.58;101012.00;5017667;28;45452;-42
2023/10/17 01:02:22;;;;;;;;;5.00;3.00;;;;;9.72;54.04;100999.13;5036801;28;45397;-40
2023/10/17 01:04:49;;;;;;;;;3.00;3.00;;;;;9.72;53.77;100993.81;5039017;28;45282;-41
2023/10/17 01:07:25;;;;;;;;;6.75;3.00;;;;;9.71;54.30;100997.44;5038903;28;45408;-40
2023/10/17 01:09:55;;;;;;;;;3.00;3.00;;;;;9.64;54.23;100985.66;5038920;28;45482;-40
2023/10/17 01:12:21;;;;;;;;;6.25;3.00;;;;;9.64;53.52;101001.59;5039354;28;45412;-40
2023/10/17 01:14:49;;;;;;;;;7.67;5.33;;;;;9.62;54.28;101008.88;5038665;28;47050;-41
2023/10/17 01:17:19;;;;;;;;;3.00;3.00;;;;;9.60;54.37;100997.53;5038852;28;45334;-41
2023/10/17 01:19:45;;;;;;;;;6.50;4.00;;;;;9.60;53.77;100991.38;5038907;28;45348;-41
2023/10/17 01:22:10;;;;;;;;;3.67;2.00;;;;;9.61;54.11;100990.44;5038869;28;45547;-40
2023/10/17 01:24:35;;;;;;;;;2.33;2.33;;;;;9.58;54.10;100983.56;5038709;28;47201;-41
2023/10/17 01:27:06;;;;;;;;;4.33;3.00;;;;;9.56;53.81;100980.19;5038648;28;45273;-41
2023/10/17 01:29:31;;;;;;;;;4.00;4.00;;;;;9.53;54.34;100971.66;5038712;28;45332;-41
2023/10/17 01:31:59;;;;;;;;;2.25;2.00;;;;;9.54;54.19;100974.19;5039029;28;45344;-42
2023/10/17 01:34:24;;;;;;;;;3.00;2.00;;;;;9.49;54.48;100960.47;5038910;28;45426;-41
2023/10/17 01:36:50;;;;;;;;;5.00;2.50;;;;;9.41;54.35;100965.59;5038525;28;45363;-40
2023/10/17 01:39:16;;;;;;;;;3.50;3.50;;;;;9.47;54.33;100988.97;5038658;28;45388;-41
2023/10/17 01:41:43;;;;;;;;;3.00;3.00;;;;;9.47;54.46;100979.16;5038785;28;45316;-40
2023/10/17 01:44:09;;;;;;;;;6.00;2.00;;;;;9.46;53.94;100990.78;5038254;28;46344;-38
2023/10/17 01:46:37;;;;;;;;;2.75;2.75;;;;;9.46;53.79;100993.44;5037956;28;45714;-42
2023/10/17 01:49:10;;;;;;;;;6.00;5.00;;;;;9.44;54.50;100991.91;5038477;28;45392;-41
2023/10/17 01:51:36;;;;;;;;;6.25;4.00;;;;;9.44;54.79;100989.25;5038505;28;45272;-41
2023/10/17 01:54:07;;;;;;;;;7.50;2.00;;;;;9.42;54.61;100985.88;5038038;28;47421;-41
2023/10/17 01:56:32;;;;;;;;;3.00;3.00;;;;;9.40;54.81;100995.78;5036815;28;45304;-41
2023/10/17 01:59:09;;;;;;;;;3.00;3.00;;;;;9.42;54.43;100996.50;5038184;28;45419;-41
2023/10/17 02:01:36;;;;;;;;;1.25;1.25;;;;;9.43;54.64;100999.00;5038510;28;45360;-41
2023/10/17 02:04:05;;;;;;;;;3.00;3.00;;;;;9.42;54.38;100992.00;5037341;28;46229;-40
2023/10/17 02:06:32;;;;;;;;;3.50;3.50;;;;;9.41;54.80;101000.13;5037833;28;45366;-40
2023/10/17 02:09:05;;;;;;;;;5.75;3.00;;;;;9.37;55.06;100988.09;5038219;28;45271;-41
2023/10/17 02:11:40;;;;;;;;;3.50;3.00;;;;;9.38;54.82;100995.06;5038160;28;45452;-41
2023/10/17 02:14:08;;;;;;;;;6.00;4.50;;;;;9.37;54.71;100988.09;5037131;28;46379;-41
2023/10/17 02:16:34;;;;;;;;;4.00;2.75;;;;;9.36;54.24;100989.06;5037820;28;45474;-39
2023/10/17 02:18:59;;;;;;;;;4.50;3.00;;;;;9.39;55.40;100996.75;5037966;28;45229;-39
2023/10/17 02:21:28;;;;;;;;;6.75;5.25;;;;;9.40;55.18;100990.50;5037562;28;45529;-40
2023/10/17 02:23:53;;;;;;;;;3.00;3.00;;;;;9.37;55.04;100985.44;5037801;28;46140;-41
2023/10/17 02:26:25;;;;;;;;;2.00;2.00;;;;;9.37;54.79;100993.41;5037636;28;45443;-40
2023/10/17 02:28:58;;;;;;;;;3.00;3.00;;;;;9.35;54.64;100990.03;5037160;28;45465;-40
2023/10/17 02:31:29;;;;;;;;;3.00;3.00;;;;;9.32;55.41;100995.63;5037851;28;45312;-40
2023/10/17 02:33:57;;;;;;;;;6.50;5.00;;;;;9.30;55.56;100997.53;5037306;28;47203;-39
2023/10/17 02:36:22;;;;;;;;;6.75;5.00;;;;;9.26;55.05;100994.31;5037533;28;45359;-39
2023/10/17 02:38:48;;;;;;;;;3.75;3.00;;;;;9.28;55.63;100999.50;5037596;28;45814;-39
2023/10/17 02:41:28;;;;;;;;;4.00;2.50;;;;;9.27;55.32;100992.50;5037603;28;45300;-39
2023/10/17 02:43:54;;;;;;;;;6.00;5.25;;;;;9.24;55.34;100985.66;5036309;28;46306;-40
2023/10/17 02:46:21;;;;;;;;;5.25;5.25;;;;;9.21;56.23;100988.56;5036896;28;45721;-41
2023/10/17 02:48:47;;;;;;;;;5.75;5.00;;;;;9.19;55.49;100987.88;5037151;28;45166;-40
2023/10/17 02:53:52;;;;;;;;;5.75;3.00;;;;;9.17;56.62;100993.28;5037010;28;45379;-40
2023/10/17 02:56:20;;;;;;;;;7.00;3.50;;;;;9.17;56.27;100987.97;5036778;28;45362;-39
2023/10/17 02:58:51;;;;;;;;;3.00;3.00;;;;;9.14;55.85;100987.41;5018469;28;45741;-39
2023/10/17 03:01:19;;;;;;;;;2.00;2.00;;;;;9.12;56.70;100989.34;5037212;28;45360;-40
2023/10/17 03:03:50;;;;;;;;;4.00;2.00;;;;;9.10;56.93;100986.84;5036876;28;45398;-40
2023/10/17 03:06:17;;;;;;;;;2.00;2.00;;;;;9.05;55.91;100974.91;5036988;28;45406;-41
2023/10/17 03:08:49;;;;;;;;;6.00;3.00;;;;;9.05;56.70;100983.72;5037287;28;45327;-41
2023/10/17 03:11:16;;;;;;;;;3.00;3.00;;;;;8.99;56.21;100981.59;5036592;28;45237;-41
2023/10/17 03:13:43;;;;;;;;;3.00;3.00;;;;;9.02;57.22;100977.81;5036790;28;45365;-40
2023/10/17 03:16:17;;;;;;;;;6.00;6.00;;;;;8.98;56.69;100974.63;5036582;28;45421;-41
2023/10/17 03:18:49;;;;;;;;;3.50;3.00;;;;;8.98;56.04;100971.97;5036710;28;45333;-41
2023/10/17 03:21:18;;;;;;;;;5.00;5.00;;;;;8.95;57.13;100958.94;5037125;28;45460;-39
2023/10/17 03:23:46;;;;;;;;;3.00;3.00;;;;;8.91;57.39;100961.03;5036413;28;46244;-41
2023/10/17 03:26:12;;;;;;;;;5.00;3.00;;;;;8.93;56.94;100969.72;5035365;28;45447;-40
2023/10/17 03:28:40;;;;;;;;;3.00;3.00;;;;;8.90;56.20;100969.13;5037111;28;45368;-41
2023/10/17 03:31:10;;;;;;;;;5.00;5.00;;;;;8.75;56.41;100964.13;5037084;28;45408;-39
2023/10/17 03:33:40;;;;;;;;;4.50;3.00;;;;;8.78;57.74;100954.25;5036492;28;46027;-41
2023/10/17 03:36:05;;;;;;;;;6.00;3.00;;;;;8.86;56.96;100970.34;5036842;28;45442;-40
2023/10/17 03:38:33;;;;;;;;;5.25;2.50;;;;;8.73;57.67;100946.69;5036782;28;45431;-40
2023/10/17 03:41:21;;;;;;;;;6.00;6.00;;;;;8.83;57.30;100967.94;5036878;28;45471;-40
2023/10/17 03:43:52;;;;;;;;;11.00;7.00;;;;;8.80;57.80;100976.16;5036546;28;46172;-41
2023/10/17 03:46:25;;;;;;;;;8.75;5.50;;;;;8.79;57.92;100977.13;5036454;28;45459;-40
2023/10/17 03:49:00;;;;;;;;;5.00;5.00;;;;;8.78;57.93;100973.66;5036486;28;45312;-40
2023/10/17 03:51:26;;;;;;;;;6.25;4.50;;;;;8.77;57.42;100979.94;5036660;28;45558;-41
2023/10/17 03:53:53;;;;;;;;;5.75;4.50;;;;;8.73;57.64;100968.72;5036707;28;46094;-42
2023/10/17 03:56:23;;;;;;;;;9.00;5.75;;;;;8.76;57.52;100978.22;5036314;28;45720;-40
2023/10/17 04:01:35;;;;;;;;;5.00;5.00;;;;;8.71;58.06;100973.31;5036615;28;45401;-40
2023/10/17 04:04:02;;;;;;;;;4.75;4.75;;;;;8.71;57.84;100975.13;5035907;28;45983;-40
2023/10/17 04:11:46;;;;;;;;;5.75;4.75;;;;;8.67;58.62;100968.41;5036834;28;45447;-39
2023/10/17 04:14:12;;;;;;;;;4.75;4.50;;;;;8.68;58.23;100973.59;5036140;28;47110;-41
2023/10/17 04:16:39;;;;;;;;;6.00;6.00;;;;;8.68;57.49;100973.59;5036216;28;45428;-39
2023/10/17 04:19:07;;;;;;;;;4.50;3.25;;;;;8.60;58.61;100960.13;5036301;28;45407;-39
2023/10/17 04:21:36;;;;;;;;;11.25;5.50;;;;;8.68;57.84;100962.13;5036319;28;45542;-41
2023/10/17 04:24:05;;;;;;;;;7.50;5.25;;;;;8.68;57.82;100962.97;5035799;28;47067;-40
2023/10/17 04:26:34;;;;;;;;;5.00;5.00;;;;;8.68;58.27;100967.41;5035800;28;45370;-40
2023/10/17 04:29:11;;;;;;;;;3.25;3.25;;;;;8.68;58.12;100964.75;5036110;28;45475;-40
2023/10/17 04:31:37;;;;;;;;;6.25;5.00;;;;;8.68;58.03;100970.06;5036117;28;45440;-41
2023/10/17 04:34:14;;;;;;;;;5.00;2.75;;;;;8.66;58.21;100962.25;5035673;28;45423;-41
2023/10/17 04:36:40;;;;;;;;;10.25;5.00;;;;;8.56;58.08;100944.63;5037917;28;45780;-39
2023/10/17 04:39:25;;;;;;;;;5.25;5.00;;;;;8.65;58.37;100965.88;5043224;28;45447;-41
2023/10/17 04:44:25;;;;;;;;;6.00;5.75;;;;;8.66;59.04;100964.06;5042836;28;45384;-40
2023/10/17 04:49:27;;;;;;;;;7.00;5.50;;;;;8.68;58.13;100960.34;5043116;28;45407;-39
2023/10/17 04:52:02;;;;;;;;;7.75;6.00;;;;;8.67;58.37;100942.72;5043464;28;45319;-41
2023/10/17 04:56:55;;;;;;;;;14.25;9.00;;;;;8.67;58.86;100952.47;5034247;28;45304;-41
2023/10/17 04:59:39;;;;;;;;;7.25;5.00;;;;;8.57;58.51;100935.69;5042686;28;45372;-40
2023/10/17 06:18:31;;;;;;;;;9.00;6.50;;;;;8.33;59.79;100980.94;5037949;28;45477;-40
2023/10/17 06:34:20;;;;;;;;;8.50;8.50;;;;;8.33;59.89;100959.72;4989107;28;46240;-43
2023/10/17 06:36:50;;;;;;;;;11.75;9.50;;;;;8.33;60.44;100965.88;4991951;28;45814;-41
2023/10/17 06:39:18;;;;;;;;;13.00;9.00;;;;;8.37;60.13;100971.78;4991859;28;45593;-42
2023/10/17 06:41:45;;;;;;;;;9.25;9.00;;;;;8.37;60.12;100972.63;4991795;28;47110;-40
2023/10/17 06:44:15;;;;;;;;;13.00;9.25;;;;;8.40;59.27;100967.09;4992414;28;45440;-40
2023/10/17 06:46:48;;;;;;;;;8.00;7.00;;;;;8.44;59.08;100971.16;4994582;28;45484;-39
2023/10/17 06:49:30;;;;;;;;;9.50;8.50;;;;;8.47;59.46;100976.22;4993744;28;45440;-40
2023/10/17 06:54:42;;;;;;;;;6.25;4.75;;;;;8.58;59.05;100971.81;4993697;28;45509;-40
2023/10/17 06:57:33;;;;;;;;;9.75;6.75;;;;;8.58;59.54;100969.16;4993554;28;45417;-47
2023/10/17 07:00:00;;;;;;;;;6.75;6.75;;;;;8.62;58.97;100971.44;4993391;28;45384;-39
2023/10/17 07:02:34;;;;;;;;;9.25;6.00;;;;;8.62;58.67;100965.28;4993561;28;45677;-39
2023/10/17 07:05:01;;;;;;;;;12.75;8.25;;;;;8.71;58.96;100970.66;4995858;28;45532;-40
2023/10/17 07:07:40;;;;;;;;;8.50;8.50;;;;;8.74;59.28;100974.88;5035503;28;45609;-41
2023/10/17 07:10:37;;;;;;;;;10.50;9.25;;;;;8.62;58.55;100950.22;5035433;28;45424;-40
2023/10/17 07:13:41;;;;;;;;;9.25;6.00;;;;;8.78;59.10;100972.81;5035220;28;45419;-40
2023/10/17 07:16:13;;;;;;;;;11.25;8.75;;;;;8.69;58.55;100961.16;5035302;28;45786;-39
2023/10/17 07:18:43;;;;;;;;;8.50;7.00;;;;;8.80;59.13;100968.19;5036083;28;45309;-40
2023/10/17 07:21:15;;;;;;;;;11.00;9.00;;;;;8.84;58.58;100974.94;5036175;28;45467;-42
2023/10/17 07:23:42;;;;;;;;;7.25;6.50;;;;;8.81;58.28;100967.25;5018202;28;47610;-40
2023/10/17 07:26:18;;;;;;;;;10.25;9.25;;;;;8.87;58.31;100972.03;5035638;28;45502;-41
2023/10/17 07:28:52;;;;;;;;;7.75;7.75;;;;;8.87;58.87;100972.03;5035828;28;45470;-40
2023/10/17 07:31:20;;;;;;;;;11.75;11.75;;;;;8.88;58.39;100969.22;5035015;28;45514;-42
2023/10/17 07:33:47;;;;;;;;;12.00;10.25;;;;;8.89;59.41;100970.94;5035014;28;46936;-38
2023/10/17 07:36:15;;;;;;;;;28.50;24.00;;;;;8.95;58.95;100966.91;5035600;28;45261;-39
2023/10/17 07:38:43;;;;;;;;;7.00;7.00;;;;;8.98;58.31;100964.84;5035515;28;45577;-42
2023/10/17 07:41:14;;;;;;;;;12.75;8.25;;;;;8.99;58.90;100971.81;5035365;28;45826;-41
2023/10/17 07:43:46;;;;;;;;;7.25;7.25;;;;;9.03;58.69;100972.41;5035618;28;45451;-41
2023/10/17 07:46:18;;;;;;;;;9.50;7.25;;;;;9.06;58.62;100972.16;5035307;28;45441;-42
2023/10/17 07:48:50;;;;;;;;;12.25;11.00;;;;;9.13;58.46;100970.63;5035244;28;45349;-40
2023/10/17 07:51:16;;;;;;;;;9.75;6.00;;;;;9.19;58.34;100966.63;5035809;28;45615;-45
2023/10/17 07:53:45;;;;;;;;;14.50;10.00;;;;;9.12;57.35;100957.50;5034333;28;47347;-42
2023/10/17 07:56:20;;;;;;;;;8.50;8.50;;;;;9.25;58.02;100974.88;5016853;28;45435;-41
2023/10/17 07:58:46;;;;;;;;;7.00;6.50;;;;;9.30;58.32;100968.34;5035529;28;45391;-40
2023/10/17 08:01:16;;;;;;;;;11.25;8.25;;;;;9.33;57.84;100965.44;5035107;28;45535;-39
2023/10/17 08:03:51;;;;;;;;;11.00;7.00;;;;;9.36;57.02;100963.34;5034753;28;46304;-41
2023/10/17 08:06:22;;;;;;;;;15.00;6.50;;;;;9.38;57.69;100968.53;5035262;28;45520;-41
2023/10/17 08:08:49;;;;;;;;;13.00;12.50;;;;;9.42;57.69;100967.28;5035239;28;45444;-40
2023/10/17 08:11:27;;;;;;;;;16.00;10.00;;;;;9.46;58.12;100961.56;5034462;28;45339;-42
2023/10/17 08:14:01;;;;;;;;;13.25;8.75;;;;;9.51;57.71;100974.44;5034137;28;46395;-44
2023/10/17 08:16:28;;;;;;;;;19.75;12.00;;;;;9.57;57.48;100968.59;5035326;28;45463;-41
2023/10/17 08:19:12;;;;;;;;;9.25;6.25;;;;;9.59;57.63;100977.25;5034785;28;45659;-42
2023/10/17 08:24:57;;;;;;;;;32.50;27.00;;;;;9.78;57.52;100967.69;5034959;28;45474;-42
2023/10/17 08:27:18;;;;;;;;;6.25;6.25;;;;;9.90;57.35;100975.41;5031556;28;45427;-42
2023/10/17 08:29:57;;;;;;;;;11.00;9.75;;;;;10.06;56.80;100969.53;5034315;28;45495;-41
2023/10/17 08:35:03;;;;;;;;;11.75;9.00;;;;;10.40;56.29;100971.84;5034078;28;45470;-43
2023/10/17 08:37:29;;;;;;;;;9.25;7.00;;;;;10.57;55.67;100957.84;5033667;28;45430;-42
2023/10/17 08:39:56;;;;;;;;;16.25;9.25;;;;;10.88;55.23;100969.16;5034721;28;45834;-43
2023/10/17 08:42:36;;;;;;;;;8.75;8.75;;;;;12.20;53.77;100969.81;5035112;28;45372;-41
2023/10/17 08:45:04;;;;;;;;;9.25;9.25;;;;;14.07;49.54;100955.94;5034831;28;46108;-40
2023/10/17 08:47:30;;;;;;;;;13.00;8.25;;;;;15.61;46.44;100948.75;5034569;28;45474;-39
2023/10/17 08:50:01;;;;;;;;;11.67;9.33;;;;;16.45;45.40;100939.88;5016399;28;45507;-40
2023/10/17 08:52:27;;;;;;;;;12.67;9.00;;;;;17.49;42.22;100940.03;5034634;28;45515;-40
2023/10/17 08:54:53;;;;;;;;;11.67;6.67;;;;;18.80;38.83;100936.25;5034088;28;45546;-41
2023/10/17 08:57:19;;;;;;;;;8.00;6.00;;;;;19.60;38.54;100940.25;5033763;28;45395;-43
2023/10/17 09:02:35;;;;;;;;;8.67;8.33;;;;;19.78;37.44;100925.38;5034384;28;45280;-42
2023/10/17 09:05:12;;;;;;;;;6.67;5.67;;;;;19.37;37.72;100921.66;5017115;28;46247;-41
2023/10/17 09:07:43;;;;;;;;;13.00;10.33;;;;;18.99;38.59;100921.22;5013760;28;45520;-41
2023/10/17 09:10:38;;;;;;;;;9.67;6.33;;;;;18.76;39.55;100917.97;5013755;28;45577;-41
2023/10/17 09:15:55;;;;;;;;;10.67;9.33;;;;;19.03;38.61;100911.72;5014030;28;45957;-42
2023/10/17 09:18:29;;;;;;;;;9.00;9.00;;;;;19.30;39.22;100914.56;5014186;28;45501;-44
2023/10/17 09:20:55;;;;;;;;;10.33;8.00;;;;;19.58;41.05;100909.91;5013813;28;45344;-39
2023/10/17 09:23:29;;;;;;;;;10.33;7.00;;;;;20.15;37.45;100910.53;5014038;28;45412;-39
2023/10/17 09:26:00;;;;;;;;;12.67;7.00;;;;;21.11;36.51;100905.53;5017296;28;46151;-41
2023/10/17 09:28:28;;;;;;;;;9.33;9.33;;;;;22.24;34.29;100904.19;5017019;28;45483;-41
2023/10/17 09:30:57;;;;;;;;;11.67;9.00;;;;;23.11;33.81;100905.94;5016621;28;45467;-41
2023/10/17 09:33:30;;;;;;;;;11.00;11.00;;;;;23.71;31.96;100912.56;5017515;28;45522;-40
2023/10/17 09:36:04;;;;;;;;;11.67;9.00;;;;;24.10;32.45;100914.72;5017049;28;46117;-42
2023/10/17 09:38:34;;;;;;;;;10.00;10.00;;;;;24.50;31.41;100916.00;5017262;28;45495;-42
2023/10/17 09:41:01;;;;;;;;;13.00;12.00;;;;;25.05;30.38;100911.03;5017132;28;45430;-41
2023/10/17 09:43:26;;;;;;;;;10.00;10.00;;;;;25.53;28.37;100904.44;5017672;28;45429;-41
2023/10/17 09:45:52;;;;;;;;;11.00;8.00;;;;;25.93;28.66;100892.72;5015977;28;45450;-40
2023/10/17 09:48:26;;;;;;;;;12.25;8.75;;;;;25.77;31.70;100894.31;5017008;28;45502;-40
2023/10/17 09:50:56;;;;;;;;;8.00;8.00;;;;;25.86;28.75;100894.75;5017240;28;45764;-41
2023/10/17 09:53:28;;;;;;;;;9.50;9.00;;;;;26.17;28.47;100893.44;5016725;28;45424;-42
2023/10/17 09:55:56;;;;;;;;;11.75;9.00;;;;;26.25;26.82;100894.88;5016696;28;45486;-41
2023/10/17 09:58:24;;;;;;;;;12.60;9.40;;;;;26.11;28.74;100889.75;5016982;28;45570;-40
2023/10/17 10:00:53;;;;;;;;;6.75;6.75;;;;;26.23;29.25;100876.06;5016749;28;45412;-41
2023/10/17 10:03:21;;;;;;;;;9.50;8.75;;;;;26.31;28.70;100880.28;5019082;28;45328;-41
2023/10/17 10:05:47;;;;;;;;;10.25;8.00;;;;;26.33;28.49;100876.22;5036255;28;46328;-43
2023/10/17 10:08:31;;;;;;;;;10.25;9.00;;;;;26.64;27.61;100879.47;5036504;28;45463;-44
2023/10/17 10:10:57;;;;;;;;;9.00;8.25;;;;;27.21;26.92;100876.47;5036329;28;45439;-42
2023/10/17 10:13:24;;;;;;;;;8.50;8.00;;;;;27.65;26.45;100872.88;5036041;28;45454;-40
2023/10/17 10:16:04;;;;;;;;;9.80;7.80;;;;;27.81;27.44;100852.81;5036470;28;45398;-42
2023/10/17 10:18:35;;;;;;;;;9.40;8.60;;;;;28.15;26.55;100872.59;5036539;28;45521;-39
2023/10/17 10:21:04;;;;;;;;;11.60;8.60;;;;;28.26;25.90;100878.94;5036540;28;45465;-39
2023/10/17 10:23:37;;;;;;;;;9.00;8.00;;;;;28.23;27.20;100872.09;5036342;28;45498;-41
2023/10/17 10:26:10;;;;;;;;;7.20;7.20;;;;;27.90;26.76;100867.72;5031046;28;46924;-41
2023/10/17 10:28:37;;;;;;;;;7.80;7.00;;;;;27.18;26.66;100860.59;5026328;28;45431;-40
2023/10/17 10:31:22;;;;;;;;;6.80;6.80;;;;;26.29;28.20;100857.88;5036173;28;45448;-41
2023/10/17 10:34:00;;;;;;;;;7.50;7.00;;;;;25.40;29.10;100861.16;5036209;28;45432;-41
2023/10/17 10:36:26;;;;;;;;;11.50;9.75;;;;;24.53;30.04;100853.81;5034131;28;45792;-42
2023/10/17 10:38:55;;;;;;;;;9.80;9.00;;;;;24.29;30.19;100863.00;5036523;28;45271;-41
2023/10/17 10:41:25;;;;;;;;;14.80;9.00;;;;;24.59;30.36;100860.19;5035884;28;45479;-41
2023/10/17 10:44:01;;;;;;;;;12.50;9.25;;;;;25.12;31.66;100849.19;5036482;28;45451;-40
2023/10/17 10:46:28;;;;;;;;;8.25;8.25;;;;;25.29;29.95;100851.16;5036201;28;47152;-41
2023/10/17 10:48:53;;;;;;;;;10.00;8.60;;;;;24.93;30.20;100846.81;5035785;28;45446;-42
2023/10/17 10:51:24;;;;;;;;;9.75;9.00;;;;;24.60;31.77;100851.78;5036020;28;45446;-41
2023/10/17 10:53:55;;;;;;;;;12.50;10.00;;;;;24.34;30.70;100849.50;5036465;28;45435;-43
2023/10/17 10:56:22;;;;;;;;;8.50;7.75;;;;;24.34;31.84;100852.22;5035625;28;46287;-42
2023/10/17 10:58:55;;;;;;;;;8.20;8.00;;;;;24.20;31.16;100842.66;5035906;28;45356;-40
2023/10/17 11:01:22;;;;;;;;;9.20;7.60;;;;;24.24;31.37;100843.84;5036131;28;45450;-41
2023/10/17 11:03:49;;;;;;;;;9.25;8.75;;;;;24.43;32.00;100839.97;5029608;28;45491;-42
2023/10/17 11:06:20;;;;;;;;;8.00;8.00;;;;;24.65;31.39;100832.06;5014840;28;46325;-42
2023/10/17 11:08:46;;;;;;;;;13.00;8.20;;;;;25.14;30.58;100841.56;5015720;28;45506;-41
2023/10/17 11:11:15;;;;;;;;;12.60;11.20;;;;;25.83;31.30;100840.75;5015398;28;45458;-41
2023/10/17 11:13:45;;;;;;;;;8.00;6.25;;;;;26.76;29.16;100833.00;5016482;28;45304;-40
2023/10/17 11:16:12;;;;;;;;;8.25;6.75;;;;;27.79;27.26;100823.03;5015222;28;46279;-41
2023/10/17 11:18:40;;;;;;;;;9.20;8.00;;;;;28.94;25.79;100816.19;5015648;28;45376;-41
2023/10/17 11:21:08;;;;;;;;;11.80;9.00;;;;;29.50;25.42;100814.50;5012493;28;45477;-41
2023/10/17 11:23:35;;;;;;;;;10.25;9.75;;;;;29.57;25.28;100826.03;5015789;28;45556;-41
2023/10/17 11:26:12;;;;;;;;;9.80;7.00;;;;;29.96;26.79;100810.97;5015175;28;46459;-40
2023/10/17 11:28:46;;;;;;;;;8.80;8.40;;;;;30.38;24.77;100807.97;5015517;28;45340;-40
2023/10/17 11:31:13;;;;;;;;;8.20;8.20;;;;;30.31;24.28;100804.69;5015128;28;45420;-42
2023/10/17 11:33:45;;;;;;;;;9.60;7.00;;;;;29.90;24.69;100809.34;5015496;28;45495;-41
2023/10/17 11:36:16;;;;;;;;;8.80;8.80;;;;;29.51;25.13;100799.69;4998497;28;46463;-42
2023/10/17 11:38:43;;;;;;;;;8.20;7.80;;;;;28.86;25.43;100792.88;5015382;28;45778;-41
2023/10/17 11:41:09;;;;;;;;;15.40;11.20;;;;;28.66;25.31;100773.63;5015239;28;45234;-40
2023/10/17 11:43:36;;;;;;;;;11.00;8.60;;;;;28.46;25.95;100783.38;5015818;28;45393;-41
2023/10/17 11:46:03;;;;;;;;;11.80;9.00;;;;;28.30;27.07;100790.63;5013690;28;45463;-42
2023/10/17 11:48:33;;;;;;;;;18.60;13.60;;;;;27.99;26.57;100777.81;5014711;28;45406;-40
2023/10/17 11:51:12;;;;;;;;;15.20;12.00;;;;;27.50;27.16;100777.91;4997869;28;45383;-42
2023/10/17 11:54:04;;;;;;;;;10.20;9.00;;;;;26.83;27.83;100766.19;5014965;28;45624;-41
2023/10/17 11:56:34;;;;;;;;;9.60;8.00;;;;;26.50;28.65;100763.56;5014763;28;47312;-41
2023/10/17 11:59:01;;;;;;;;;10.60;7.00;;;;;26.05;29.47;100761.81;5008655;28;45456;-42
2023/10/17 12:01:27;;;;;;;;;10.20;8.20;;;;;25.70;29.76;100760.09;5015093;28;45400;-42
2023/10/17 12:03:59;;;;;;;;;9.40;9.20;;;;;25.37;30.06;100767.16;5021519;28;45600;-43
2023/10/17 12:06:27;;;;;;;;;7.60;7.60;;;;;24.98;30.81;100766.09;5034439;28;46151;-41
2023/10/17 12:08:54;;;;;;;;;9.20;8.00;;;;;24.49;31.15;100759.34;5034630;28;45442;-42
2023/10/17 12:11:19;;;;;;;;;11.60;9.20;;;;;24.43;31.56;100743.97;5034532;28;45404;-41
2023/10/17 12:13:46;;;;;;;;;7.50;7.50;;;;;24.39;31.97;100736.28;5035368;28;45344;-39
2023/10/17 12:16:11;;;;;;;;;10.60;7.40;;;;;24.23;32.61;100722.56;5033916;28;47260;-41
2023/10/17 12:18:37;;;;;;;;;6.00;6.00;;;;;24.08;31.90;100737.47;5034483;28;45512;-42
2023/10/17 12:21:04;;;;;;;;;9.40;7.20;;;;;23.81;32.94;100739.00;5034529;28;45415;-42
2023/10/17 12:23:30;;;;;;;;;8.75;7.25;;;;;23.56;32.98;100742.69;5034812;28;45387;-41
2023/10/17 12:26:07;;;;;;;;;9.80;7.80;;;;;23.34;33.66;100746.97;5034249;28;45517;-42
2023/10/17 12:28:33;;;;;;;;;5.20;5.20;;;;;23.06;33.86;100742.16;5016760;28;45884;-40
2023/10/17 12:30:58;;;;;;;;;8.00;5.50;;;;;22.74;34.55;100730.63;5034094;28;45446;-41
2023/10/17 12:33:24;;;;;;;;;9.50;7.00;;;;;22.44;34.99;100725.97;5033997;28;45384;-42
2023/10/17 12:35:51;;;;;;;;;8.00;6.25;;;;;22.09;35.49;100729.22;5034064;28;46098;-44
2023/10/17 12:38:33;;;;;;;;;9.00;8.50;;;;;21.71;36.41;100721.22;5034149;28;45455;-41
2023/10/17 12:40:58;;;;;;;;;8.50;7.00;;;;;21.38;37.19;100724.97;5034234;28;45370;-41
2023/10/17 12:43:24;;;;;;;;;6.50;5.50;;;;;21.18;37.73;100718.81;5034493;28;45530;-42
2023/10/17 12:45:49;;;;;;;;;9.50;6.75;;;;;21.02;37.55;100714.75;5016620;28;45964;-41
2023/10/17 12:48:15;;;;;;;;;10.00;7.00;;;;;20.79;37.38;100704.47;5034452;28;45254;-40
2023/10/17 12:50:43;;;;;;;;;7.50;7.50;;;;;20.47;39.09;100699.97;5033794;28;45388;-40
2023/10/17 12:53:10;;;;;;;;;6.00;6.00;;;;;20.38;38.59;100702.91;5033854;28;45583;-41
2023/10/17 12:55:37;;;;;;;;;7.00;6.75;;;;;20.21;39.09;100677.41;5034519;28;45405;-40
2023/10/17 12:58:03;;;;;;;;;7.25;6.75;;;;;20.13;39.05;100693.81;5016933;28;45440;-41
2023/10/17 13:00:30;;;;;;;;;9.50;7.00;;;;;19.98;39.69;100698.66;5037658;28;45419;-41
2023/10/17 13:02:56;;;;;;;;;7.25;7.00;;;;;19.67;40.75;100679.34;5037771;28;45403;-41
2023/10/17 13:05:21;;;;;;;;;7.50;7.00;;;;;19.64;40.50;100695.97;5018339;28;45820;-41
2023/10/17 13:07:47;;;;;;;;;10.75;7.75;;;;;19.40;40.94;100673.06;5017742;28;45557;-40
2023/10/17 13:10:13;;;;;;;;;8.00;7.00;;;;;19.42;41.11;100697.13;5017655;28;45449;-39
2023/10/17 13:12:39;;;;;;;;;7.00;7.00;;;;;19.32;41.84;100705.63;5017867;28;45600;-41
2023/10/17 13:15:08;;;;;;;;;9.33;6.33;;;;;19.23;40.86;100689.88;5017764;28;45443;-42
2023/10/17 13:17:34;;;;;;;;;8.67;7.00;;;;;19.11;42.39;100676.97;5016492;28;45431;-41
2023/10/17 13:20:07;;;;;;;;;9.33;7.00;;;;;19.19;41.94;100681.34;5017398;28;45490;-40
2023/10/17 13:22:46;;;;;;;;;6.00;6.00;;;;;19.13;41.95;100680.31;4999790;28;45575;-41
2023/10/17 13:25:18;;;;;;;;;6.33;5.00;;;;;19.11;42.53;100679.66;5016794;28;46161;-41
2023/10/17 13:27:43;;;;;;;;;5.67;5.67;;;;;19.09;42.96;100681.75;5017211;28;45448;-41
2023/10/17 13:30:09;;;;;;;;;11.33;7.00;;;;;19.05;42.81;100672.41;5017611;28;45460;-39
2023/10/17 13:32:35;;;;;;;;;8.00;6.33;;;;;19.07;42.93;100675.72;5017306;28;45380;-42
2023/10/17 13:35:00;;;;;;;;;7.00;7.00;;;;;19.01;43.41;100657.69;5017192;28;46103;-41
2023/10/17 13:37:27;;;;;;;;;8.00;6.00;;;;;19.01;42.82;100671.16;5016887;28;45903;-41
2023/10/17 13:39:53;;;;;;;;;6.67;6.67;;;;;18.99;43.42;100670.50;5017459;28;45496;-40
2023/10/17 13:42:18;;;;;;;;;9.00;6.00;;;;;18.99;43.31;100664.28;5017814;28;45382;-42
2023/10/17 13:44:44;;;;;;;;;5.33;3.33;;;;;18.96;43.69;100670.91;5017011;28;45461;-40
2023/10/17 13:47:09;;;;;;;;;8.00;7.00;;;;;18.88;43.98;100665.72;5017368;28;45847;-42
2023/10/17 13:49:34;;;;;;;;;7.00;6.00;;;;;18.85;42.81;100663.44;5017362;28;45518;-39